createdAt,value
2023-03-06T00:03:41.717Z,75.43
2023-03-06T00:08:45.335Z,75.57
2023-03-06T00:13:48.986Z,75.64
2023-03-06T00:18:52.797Z,75.77
2023-03-06T00:23:56.458Z,75.78
2023-03-06T00:29:00.117Z,75.71
2023-03-06T00:34:04.378Z,75.68
2023-03-06T00:39:09.330Z,75.68
2023-03-06T00:44:13.014Z,75.72
2023-03-06T00:49:16.810Z,75.81
2023-03-06T00:54:20.677Z,75.82
2023-03-06T00:59:24.352Z,75.85
2023-03-06T01:04:27.873Z,75.96
2023-03-06T01:09:32.082Z,76.04
2023-03-06T01:14:36.510Z,76.12
2023-03-06T01:19:40.076Z,76.04
2023-03-06T01:24:43.719Z,76.12
2023-03-06T01:29:47.314Z,76.22
2023-03-06T01:34:51.034Z,76.29
2023-03-06T01:39:54.721Z,76.31
2023-03-06T01:45:18.189Z,76.31
2023-03-06T01:50:22.458Z,76.40
2023-03-06T01:55:33.449Z,76.32
2023-03-06T02:00:37.040Z,76.33
2023-03-06T02:05:44.047Z,76.42
2023-03-06T02:11:20.843Z,76.33
2023-03-06T02:16:30.670Z,76.53
2023-03-06T02:21:37.888Z,76.68
2023-03-06T02:26:43.490Z,76.75
2023-03-06T02:31:47.194Z,76.85
2023-03-06T02:37:09.185Z,76.96
2023-03-06T02:42:20.172Z,76.91
2023-03-06T02:47:23.956Z,76.89
2023-03-06T02:52:27.537Z,76.99
2023-03-06T02:57:31.206Z,77.08
2023-03-06T03:02:34.803Z,77.16
2023-03-06T03:07:38.486Z,77.19
2023-03-06T03:12:42.795Z,77.36
2023-03-06T03:17:46.406Z,77.40
2023-03-06T03:22:53.628Z,77.54
2023-03-06T03:27:57.248Z,77.58
2023-03-06T03:33:00.875Z,77.51
2023-03-06T03:38:04.830Z,77.54
2023-03-06T03:43:08.371Z,77.54
2023-03-06T03:48:11.914Z,77.52
2023-03-06T03:53:15.529Z,77.51
2023-03-06T03:58:19.001Z,77.60
2023-03-06T04:03:22.545Z,77.83
2023-03-06T04:08:27.722Z,77.92
2023-03-06T04:13:31.289Z,78.22
2023-03-06T04:18:35.036Z,78.11
2023-03-06T04:23:38.735Z,78.03
2023-03-06T04:28:42.365Z,78.28
2023-03-06T04:33:46.009Z,78.42
2023-03-06T04:38:49.522Z,78.68
2023-03-06T04:43:53.754Z,78.82
2023-03-06T04:48:57.306Z,78.82
2023-03-06T04:54:01.233Z,78.99
2023-03-06T04:59:04.989Z,79.13
2023-03-06T05:04:08.701Z,79.18
2023-03-06T05:09:12.176Z,79.18
2023-03-06T05:14:15.876Z,79.09
2023-03-06T05:19:19.404Z,79.12
2023-03-06T05:24:23.246Z,79.10
2023-03-06T05:29:27.841Z,79.21
2023-03-06T05:34:31.717Z,79.07
2023-03-06T05:39:35.305Z,79.01
2023-03-06T05:44:38.965Z,78.82
2023-03-06T05:49:42.729Z,78.28
2023-03-06T05:54:52.153Z,78.25
2023-03-06T05:59:55.711Z,78.21
2023-03-06T06:05:05.557Z,77.95
2023-03-06T06:10:11.369Z,77.57
2023-03-06T06:15:15.792Z,77.33
2023-03-06T06:20:19.660Z,77.01
2023-03-06T06:25:23.195Z,76.71
2023-03-06T06:30:26.915Z,76.24
2023-03-06T06:35:30.420Z,75.81
2023-03-06T06:40:34.133Z,75.54
2023-03-06T06:45:37.887Z,74.86
2023-03-06T06:50:41.721Z,74.17
2023-03-06T06:55:45.402Z,73.57
2023-03-06T07:00:49.081Z,73.25
2023-03-06T07:05:56.457Z,72.72
2023-03-06T07:11:07.546Z,72.21
2023-03-06T07:16:11.581Z,71.83
2023-03-06T07:21:15.667Z,71.00
2023-03-06T07:26:19.511Z,70.16
2023-03-06T07:31:27.381Z,69.56
2023-03-06T07:36:31.220Z,69.16
2023-03-06T07:41:35.762Z,68.69
2023-03-06T07:46:39.557Z,68.49
2023-03-06T07:51:43.521Z,67.38
2023-03-06T07:56:51.911Z,66.71
2023-03-06T08:01:57.869Z,66.57
2023-03-06T08:07:01.744Z,66.00
2023-03-06T08:12:06.498Z,65.43
2023-03-06T08:17:10.541Z,64.97
2023-03-06T08:22:14.645Z,64.57
2023-03-06T08:27:18.602Z,64.36
2023-03-06T08:32:22.779Z,62.65
2023-03-06T08:37:26.752Z,60.85
2023-03-06T08:42:31.911Z,59.89
2023-03-06T08:47:36.742Z,58.49
2023-03-06T08:52:40.571Z,58.37
2023-03-06T08:57:44.606Z,58.04
2023-03-06T09:02:48.667Z,56.59
2023-03-06T09:07:52.759Z,55.64
2023-03-06T09:12:56.592Z,54.86
2023-03-06T09:18:00.610Z,53.67
2023-03-06T09:23:04.652Z,51.64
2023-03-06T09:28:11.581Z,52.11
2023-03-06T09:33:17.139Z,50.21
2023-03-06T09:38:25.513Z,48.41
2023-03-06T09:43:42.174Z,47.26
2023-03-06T09:49:10.574Z,45.07
2023-03-06T09:58:30.430Z,42.37
2023-03-06T10:03:37.304Z,41.86
2023-03-06T10:08:48.716Z,40.72
2023-03-06T10:14:19.870Z,39.76
2023-03-06T10:19:32.096Z,39.74
2023-03-06T10:24:54.763Z,38.88
2023-03-06T10:30:23.478Z,39.09
2023-03-06T10:35:41.999Z,38.18
2023-03-06T10:41:26.181Z,38.62
2023-03-06T10:46:40.127Z,37.57
2023-03-06T10:52:05.747Z,37.73
2023-03-06T10:57:25.326Z,38.40
2023-03-06T11:02:41.372Z,38.18
2023-03-06T11:08:00.728Z,36.71
2023-03-06T11:13:26.528Z,37.18
2023-03-06T11:18:35.230Z,36.17
2023-03-06T11:23:46.836Z,34.92
2023-03-06T11:29:09.154Z,33.97
2023-03-06T11:34:31.941Z,36.22
2023-03-06T11:39:48.271Z,36.33
2023-03-06T11:45:03.176Z,35.52
2023-03-06T11:50:41.717Z,35.99
2023-03-06T11:56:20.181Z,35.41
2023-03-06T12:02:05.238Z,35.91
2023-03-06T12:07:53.067Z,35.21
2023-03-06T12:13:08.052Z,35.44
2023-03-06T12:18:43.931Z,35.83
2023-03-06T12:24:30.155Z,35.21
2023-03-06T12:30:18.618Z,34.26
2023-03-06T12:35:58.248Z,34.97
2023-03-06T12:41:36.118Z,34.89
2023-03-06T12:46:52.632Z,34.43
2023-03-06T12:51:59.952Z,34.92
2023-03-06T12:57:09.199Z,33.61
2023-03-06T13:02:41.982Z,33.60
2023-03-06T13:08:19.632Z,32.51
2023-03-06T13:13:44.894Z,32.06
2023-03-06T13:19:12.378Z,31.73
2023-03-06T13:24:40.462Z,31.23
2023-03-06T13:29:53.144Z,31.99
2023-03-06T13:34:57.211Z,32.32
2023-03-06T13:40:00.921Z,33.58
2023-03-06T13:45:38.745Z,32.44
2023-03-06T13:50:47.089Z,31.56
2023-03-06T13:56:27.772Z,30.53
2023-03-06T14:01:59.503Z,30.01
2023-03-06T14:07:27.147Z,32.33
2023-03-06T14:12:40.764Z,34.77
2023-03-06T14:18:01.955Z,35.77
2023-03-06T14:24:02.262Z,36.26
2023-03-06T14:29:18.640Z,36.72
2023-03-06T14:34:30.882Z,36.72
2023-03-06T14:39:46.995Z,37.54
2023-03-06T14:45:16.280Z,38.06
2023-03-06T14:50:33.499Z,38.01
2023-03-06T14:55:38.582Z,37.85
2023-03-06T15:00:47.343Z,37.79
2023-03-06T15:05:53.697Z,38.13
2023-03-06T15:11:05.404Z,38.29
2023-03-06T15:16:30.161Z,39.85
2023-03-06T15:21:39.397Z,40.35
2023-03-06T15:26:43.074Z,41.19
2023-03-06T15:31:48.363Z,42.15
2023-03-06T15:36:56.419Z,43.05
2023-03-06T15:42:22.297Z,43.88
2023-03-06T15:47:26.541Z,44.83
2023-03-06T15:52:30.366Z,45.38
2023-03-06T15:57:35.651Z,46.11
2023-03-06T16:02:41.522Z,46.74
2023-03-06T16:07:47.140Z,47.27
2023-03-06T16:13:13.268Z,47.88
2023-03-06T16:18:18.692Z,48.24
2023-03-06T16:23:22.815Z,48.87
2023-03-06T16:28:28.307Z,49.52
2023-03-06T16:33:32.215Z,50.09
2023-03-06T16:38:36.322Z,50.67
2023-03-06T16:43:40.540Z,51.40
2023-03-06T16:48:46.668Z,53.31
2023-03-06T16:53:54.055Z,56.20
2023-03-06T16:59:00.313Z,58.99
2023-03-06T17:04:06.698Z,59.73
2023-03-06T17:09:11.691Z,60.08
2023-03-06T17:14:15.825Z,60.67
2023-03-06T17:19:19.949Z,60.90
2023-03-06T17:24:24.086Z,61.24
2023-03-06T17:29:33.606Z,61.39
2023-03-06T17:34:40.942Z,61.54
2023-03-06T17:39:44.786Z,61.85
2023-03-06T17:44:48.859Z,62.46
2023-03-06T17:49:52.626Z,62.49
2023-03-06T17:54:56.343Z,62.98
2023-03-06T18:00:00.387Z,63.22
2023-03-06T18:05:05.107Z,63.72
2023-03-06T18:10:10.178Z,64.45
2023-03-06T18:15:16.311Z,65.25
2023-03-06T18:20:21.601Z,65.90
2023-03-06T18:25:25.340Z,66.47
2023-03-06T18:30:30.201Z,66.84
2023-03-06T18:35:35.869Z,67.49
2023-03-06T18:40:42.339Z,67.57
2023-03-06T18:45:57.496Z,67.61
2023-03-06T18:51:11.204Z,68.03
2023-03-06T18:56:22.185Z,68.24
2023-03-06T19:01:27.293Z,68.71
2023-03-06T19:06:32.509Z,68.92
2023-03-06T19:11:38.872Z,69.05
2023-03-06T19:16:43.945Z,69.29
2023-03-06T19:21:48.783Z,69.79
2023-03-06T19:26:54.552Z,70.32
2023-03-06T19:31:59.755Z,70.43
2023-03-06T19:37:05.393Z,70.67
2023-03-06T19:42:09.956Z,70.75
2023-03-06T19:47:14.705Z,70.72
2023-03-06T19:52:19.080Z,70.71
2023-03-06T19:57:23.088Z,70.67
2023-03-06T20:02:27.918Z,70.79
2023-03-06T20:07:36.764Z,71.01
2023-03-06T20:12:45.005Z,71.29
2023-03-06T20:17:48.828Z,71.22
2023-03-06T20:22:52.943Z,71.19
2023-03-06T20:27:56.827Z,71.39
2023-03-06T20:33:00.997Z,71.67
2023-03-06T20:38:04.932Z,71.93
2023-03-06T20:43:09.262Z,71.68
2023-03-06T20:48:13.292Z,71.49
2023-03-06T20:53:17.258Z,71.31
2023-03-06T20:58:22.485Z,71.32
2023-03-06T21:03:26.301Z,71.86
2023-03-06T21:08:31.820Z,72.21
2023-03-06T21:13:35.720Z,72.19
2023-03-06T21:18:40.868Z,72.28
2023-03-06T21:23:46.239Z,72.26
2023-03-06T21:28:50.802Z,72.30
2023-03-06T21:33:56.072Z,72.48
2023-03-06T21:39:00.188Z,72.68
2023-03-06T21:44:06.685Z,72.68
2023-03-06T21:49:10.621Z,72.86
2023-03-06T21:54:17.497Z,72.96
2023-03-06T21:59:26.305Z,73.14
2023-03-06T22:04:30.473Z,73.34
2023-03-06T22:09:37.294Z,73.69
2023-03-06T22:14:45.100Z,73.89
2023-03-06T22:19:50.230Z,74.07
2023-03-06T22:24:54.634Z,74.35
2023-03-06T22:29:58.694Z,74.67
2023-03-06T22:35:03.139Z,75.06
2023-03-06T22:40:08.753Z,75.28
2023-03-06T22:45:13.081Z,75.37
2023-03-06T22:50:17.489Z,75.59
2023-03-06T22:55:21.193Z,75.81
2023-03-06T23:00:25.856Z,76.11
2023-03-06T23:05:30.288Z,76.34
2023-03-06T23:10:40.561Z,76.48
2023-03-06T23:15:44.433Z,76.58
2023-03-06T23:20:48.940Z,76.67
2023-03-06T23:25:59.287Z,76.83
2023-03-06T23:31:23.288Z,76.96
2023-03-06T23:36:28.495Z,77.02
2023-03-06T23:41:32.105Z,77.10
2023-03-06T23:46:35.899Z,77.14
2023-03-06T23:51:39.842Z,77.28
2023-03-06T23:56:43.572Z,77.31
